Time;durP1;ratioP1;P1;durP2;ratioP2;P2;SDS_P1;SDS_P2;PMS_P1;PMS_P2;Temp;Humidity;BMP_temperature;BMP_pressure;BME280_temperature;BME280_humidity;BME280_pressure;Samples;Min_cycle;Max_cycle;Signal;HPM_P1;HPM_P2
2023/06/07 00:00:18;;;;;;;;;;;24.70;42.00;;;;;;1561847;75;674;-64
2023/06/07 00:02:20;;;;;;;;;;;24.70;41.90;;;;;;1544664;75;759;-65
2023/06/07 00:04:22;;;;;;;;;;;24.60;41.90;;;;;;1547702;75;1589;-66
2023/06/07 00:06:24;;;;;;;;;;;24.70;42.00;;;;;;1551472;74;1095;-65
2023/06/07 00:08:26;;;;;;;;;;;24.70;42.00;;;;;;1536810;75;1937;-64
2023/06/07 00:10:28;;;;;;;;;;;24.60;41.90;;;;;;1561811;75;692;-65
2023/06/07 00:12:30;;;;;;;;;;;24.70;42.10;;;;;;1547696;75;718;-64
2023/06/07 00:14:32;;;;;;;;;;;24.60;41.90;;;;;;1560878;75;733;-64
2023/06/07 00:16:34;;;;;;;;;;;24.70;42.00;;;;;;1547915;75;705;-63
2023/06/07 00:18:36;;;;;;;;;;;24.70;42.00;;;;;;1536203;75;1465;-63
2023/06/07 00:20:38;;;;;;;;;;;24.70;42.00;;;;;;1541083;75;744;-65
2023/06/07 00:22:40;;;;;;;;;;;24.70;42.10;;;;;;1538973;75;776;-63
2023/06/07 00:24:42;;;;;;;;;;;24.70;42.30;;;;;;1552516;75;740;-63
2023/06/07 00:26:44;;;;;;;;;;;24.70;42.20;;;;;;1551147;75;683;-63
2023/06/07 00:28:46;;;;;;;;;;;24.70;42.10;;;;;;1543587;75;1932;-62
2023/06/07 00:30:48;;;;;;;;;;;24.60;41.80;;;;;;1548172;75;748;-63
2023/06/07 00:32:50;;;;;;;;;;;24.60;41.90;;;;;;1549638;75;1535;-63
2023/06/07 00:34:52;;;;;;;;;;;24.70;42.00;;;;;;1552790;75;803;-62
2023/06/07 00:36:53;;;;;;;;;;;24.60;41.90;;;;;;1532653;75;711;-62
2023/06/07 00:38:56;;;;;;;;;;;24.70;42.10;;;;;;1565519;75;1051;-63
2023/06/07 00:40:58;;;;;;;;;;;24.70;42.10;;;;;;1551211;75;681;-61
2023/06/07 00:42:59;;;;;;;;;;;24.70;42.10;;;;;;1539211;75;628;-62
2023/06/07 00:45:01;;;;;;;;;;;24.70;42.10;;;;;;1543636;75;735;-62
2023/06/07 00:47:03;;;;;;;;;;;24.60;42.00;;;;;;1553108;75;1525;-62
2023/06/07 00:49:05;;;;;;;;;;;24.70;42.10;;;;;;1547695;75;1932;-61
2023/06/07 00:51:07;;;;;;;;;;;24.70;42.10;;;;;;1548548;75;730;-62
2023/06/07 00:53:09;;;;;;;;;;;24.60;42.00;;;;;;1546649;75;758;-61
2023/06/07 00:55:11;;;;;;;;;;;24.70;42.10;;;;;;1546809;75;766;-62
2023/06/07 00:57:13;;;;;;;;;;;24.70;42.20;;;;;;1540049;75;1100;-63
2023/06/07 00:59:15;;;;;;;;;;;24.70;42.20;;;;;;1535337;75;692;-63
2023/06/07 01:01:17;;;;;;;;;;;24.70;42.20;;;;;;1538842;75;1674;-63
2023/06/07 01:03:21;;;;;;;;;;;24.70;42.20;;;;;;1539381;75;754;-63
2023/06/07 01:05:23;;;;;;;;;;;24.70;42.20;;;;;;1537028;75;1593;-62
2023/06/07 01:07:25;;;;;;;;;;;24.70;42.20;;;;;;1541971;76;1178;-62
2023/06/07 01:09:27;;;;;;;;;;;24.70;42.20;;;;;;1546353;75;1907;-63
2023/06/07 01:11:29;;;;;;;;;;;24.60;42.10;;;;;;1549999;76;734;-62
2023/06/07 01:13:31;;;;;;;;;;;24.60;42.00;;;;;;1554703;75;662;-63
2023/06/07 01:15:33;;;;;;;;;;;24.70;42.20;;;;;;1558552;74;1479;-62
2023/06/07 01:17:40;;;;;;;;;;;24.60;42.10;;;;;;1549141;75;1131;-62
2023/06/07 01:19:39;;;;;;;;;;;24.70;42.30;;;;;;1551963;75;1696;-63
2023/06/07 01:21:40;;;;;;;;;;;24.70;42.20;;;;;;1546907;75;745;-63
2023/06/07 01:23:42;;;;;;;;;;;24.70;42.30;;;;;;1557088;75;647;-63
2023/06/07 01:25:44;;;;;;;;;;;24.60;42.10;;;;;;1547559;76;720;-67
2023/06/07 01:27:46;;;;;;;;;;;24.70;42.30;;;;;;1554903;75;1305;-63
2023/06/07 01:29:49;;;;;;;;;;;24.70;42.30;;;;;;1555159;75;1936;-64
2023/06/07 01:31:51;;;;;;;;;;;24.70;42.40;;;;;;1545209;75;721;-65
2023/06/07 01:33:53;;;;;;;;;;;24.60;42.10;;;;;;1554262;75;726;-64
2023/06/07 01:35:55;;;;;;;;;;;24.60;42.10;;;;;;1555274;75;670;-64
2023/06/07 01:37:57;;;;;;;;;;;24.70;42.20;;;;;;1559242;75;1200;-65
2023/06/07 01:39:59;;;;;;;;;;;24.70;42.30;;;;;;1556222;75;764;-64
2023/06/07 01:42:01;;;;;;;;;;;24.70;42.30;;;;;;1548212;76;781;-63
2023/06/07 01:44:02;;;;;;;;;;;24.70;42.30;;;;;;1549716;76;1530;-63
2023/06/07 01:46:04;;;;;;;;;;;24.70;42.30;;;;;;1547728;75;800;-63
2023/06/07 01:48:06;;;;;;;;;;;24.70;42.30;;;;;;1563196;75;1104;-63
2023/06/07 01:50:09;;;;;;;;;;;24.70;42.30;;;;;;1550563;76;1939;-63
2023/06/07 01:52:11;;;;;;;;;;;24.60;42.10;;;;;;1553666;76;781;-64
2023/06/07 01:54:13;;;;;;;;;;;24.60;42.10;;;;;;1558522;75;813;-65
2023/06/07 01:56:19;;;;;;;;;;;24.60;42.10;;;;;;1549011;75;748;-65
2023/06/07 01:58:28;;;;;;;;;;;24.70;42.20;;;;;;1542379;76;1848;-65
2023/06/07 02:00:41;;;;;;;;;;;24.70;42.30;;;;;;1550124;76;1037;-64
2023/06/07 02:02:50;;;;;;;;;;;24.60;42.20;;;;;;1538196;76;704;-63
2023/06/07 02:04:53;;;;;;;;;;;24.60;42.10;;;;;;1553758;76;797;-64
2023/06/07 02:06:55;;;;;;;;;;;24.70;42.20;;;;;;1546418;75;1102;-64
2023/06/07 02:08:57;;;;;;;;;;;24.60;42.00;;;;;;1543627;75;1915;-65
2023/06/07 02:10:59;;;;;;;;;;;24.60;42.00;;;;;;1553774;75;1306;-63
2023/06/07 02:13:01;;;;;;;;;;;24.60;42.00;;;;;;1559824;75;730;-65
2023/06/07 02:15:03;;;;;;;;;;;24.70;42.20;;;;;;1548296;75;793;-64
2023/06/07 02:17:08;;;;;;;;;;;24.60;42.00;;;;;;1557212;75;1178;-66
2023/06/07 02:19:11;;;;;;;;;;;24.60;42.10;;;;;;1544595;75;733;-63
2023/06/07 02:21:13;;;;;;;;;;;24.70;42.20;;;;;;1552809;75;764;-66
2023/06/07 02:23:15;;;;;;;;;;;24.60;42.10;;;;;;1552659;75;779;-66
2023/06/07 02:25:16;;;;;;;;;;;24.60;42.10;;;;;;1544653;75;1527;-63
2023/06/07 02:27:18;;;;;;;;;;;24.60;42.10;;;;;;1551587;75;1094;-63
2023/06/07 02:29:23;;;;;;;;;;;24.70;42.20;;;;;;1553861;75;1935;-62
2023/06/07 02:31:25;;;;;;;;;;;24.70;42.20;;;;;;1546872;75;663;-62
2023/06/07 02:33:27;;;;;;;;;;;24.60;42.10;;;;;;1538620;75;759;-63
2023/06/07 02:35:29;;;;;;;;;;;24.70;42.20;;;;;;1565250;75;711;-63
2023/06/07 02:37:31;;;;;;;;;;;24.70;42.30;;;;;;1555797;75;1119;-63
2023/06/07 02:39:33;;;;;;;;;;;24.70;42.20;;;;;;1539337;75;1471;-62
2023/06/07 02:41:35;;;;;;;;;;;24.70;42.30;;;;;;1554577;75;784;-63
2023/06/07 02:43:37;;;;;;;;;;;24.60;42.10;;;;;;1557620;75;587;-62
2023/06/07 02:45:39;;;;;;;;;;;24.70;42.20;;;;;;1537713;75;679;-62
2023/06/07 02:47:41;;;;;;;;;;;24.70;42.20;;;;;;1548683;75;1090;-62
2023/06/07 02:49:43;;;;;;;;;;;24.70;42.20;;;;;;1539179;75;1938;-64
2023/06/07 02:51:45;;;;;;;;;;;24.70;42.20;;;;;;1550283;75;656;-62
2023/06/07 02:53:49;;;;;;;;;;;24.60;42.10;;;;;;1547915;75;1533;-62
2023/06/07 02:55:50;;;;;;;;;;;24.70;42.30;;;;;;1537932;75;1967;-62
2023/06/07 02:57:52;;;;;;;;;;;24.70;42.30;;;;;;1556849;75;1134;-62
2023/06/07 02:59:54;;;;;;;;;;;24.60;42.20;;;;;;1552509;75;784;-62
2023/06/07 03:01:56;;;;;;;;;;;24.60;42.20;;;;;;1554443;75;837;-63
2023/06/07 03:03:58;;;;;;;;;;;24.70;42.50;;;;;;1558606;75;724;-63
2023/06/07 03:06:00;;;;;;;;;;;24.60;42.40;;;;;;1548358;75;777;-64
2023/06/07 03:08:02;;;;;;;;;;;24.70;42.60;;;;;;1548970;75;1231;-63
2023/06/07 03:10:04;;;;;;;;;;;24.70;42.70;;;;;;1553076;75;1904;-63
2023/06/07 03:12:07;;;;;;;;;;;24.80;42.80;;;;;;1548700;75;751;-62
2023/06/07 03:14:09;;;;;;;;;;;24.70;42.80;;;;;;1542924;75;1009;-65
2023/06/07 03:16:10;;;;;;;;;;;24.80;43.10;;;;;;1545676;75;936;-64
2023/06/07 03:18:15;;;;;;;;;;;24.80;43.00;;;;;;1540790;75;1166;-63
2023/06/07 03:20:18;;;;;;;;;;;24.70;43.10;;;;;;1554217;75;749;-62
2023/06/07 03:22:21;;;;;;;;;;;24.70;43.10;;;;;;1542069;75;1456;-63
2023/06/07 03:24:23;;;;;;;;;;;24.80;43.10;;;;;;1552135;75;777;-63
2023/06/07 03:26:25;;;;;;;;;;;24.70;43.10;;;;;;1548094;75;720;-63
2023/06/07 03:28:27;;;;;;;;;;;24.80;43.10;;;;;;1546134;75;1147;-64
2023/06/07 03:30:29;;;;;;;;;;;24.80;43.10;;;;;;1537794;75;1948;-63
2023/06/07 03:32:31;;;;;;;;;;;24.80;43.10;;;;;;1560200;75;762;-64
2023/06/07 03:34:33;;;;;;;;;;;24.80;43.10;;;;;;1543730;75;734;-64
2023/06/07 03:36:35;;;;;;;;;;;24.80;43.00;;;;;;1543989;75;1521;-65
2023/06/07 03:38:37;;;;;;;;;;;24.80;42.90;;;;;;1547897;75;1097;-63
2023/06/07 03:40:40;;;;;;;;;;;24.80;42.90;;;;;;1563171;75;767;-64
2023/06/07 03:42:42;;;;;;;;;;;24.80;42.90;;;;;;1549838;75;644;-64
2023/06/07 03:44:43;;;;;;;;;;;24.80;42.90;;;;;;1552034;75;679;-64
2023/06/07 03:46:46;;;;;;;;;;;24.80;43.10;;;;;;1550641;75;739;-65
2023/06/07 03:48:48;;;;;;;;;;;24.80;43.00;;;;;;1540023;75;1110;-64
2023/06/07 03:50:50;;;;;;;;;;;24.80;43.00;;;;;;1535106;75;1936;-65
2023/06/07 03:52:52;;;;;;;;;;;24.90;43.10;;;;;;1551852;75;775;-63
2023/06/07 03:54:54;;;;;;;;;;;24.90;43.10;;;;;;1542454;75;738;-65
2023/06/07 03:56:57;;;;;;;;;;;24.90;43.00;;;;;;1534664;75;660;-63
2023/06/07 03:59:01;;;;;;;;;;;24.90;43.00;;;;;;1539870;75;1162;-63
2023/06/07 04:01:25;;;;;;;;;;;24.90;42.90;;;;;;1567780;75;1605;-66
2023/06/07 04:03:27;;;;;;;;;;;24.80;43.10;;;;;;1515794;77;1701;-63
2023/06/07 04:05:29;;;;;;;;;;;24.90;42.90;;;;;;1476551;78;773;-63
2023/06/07 04:07:32;;;;;;;;;;;24.90;43.00;;;;;;1512837;76;1174;-64
2023/06/07 04:09:34;;;;;;;;;;;24.90;43.00;;;;;;1508843;77;1907;-63
2023/06/07 04:11:35;;;;;;;;;;;24.90;42.90;;;;;;1510238;77;684;-64
2023/06/07 04:13:37;;;;;;;;;;;25.00;42.90;;;;;;1515488;77;729;-62
2023/06/07 04:15:40;;;;;;;;;;;25.00;42.90;;;;;;1515390;77;680;-62
2023/06/07 04:17:42;;;;;;;;;;;24.90;42.80;;;;;;1515373;77;1319;-62
2023/06/07 04:19:44;;;;;;;;;;;24.90;42.80;;;;;;1515559;77;713;-63
2023/06/07 04:21:45;;;;;;;;;;;24.90;42.80;;;;;;1513972;77;777;-63
2023/06/07 04:23:47;;;;;;;;;;;25.00;42.80;;;;;;1515642;77;731;-63
2023/06/07 04:25:49;;;;;;;;;;;24.90;42.90;;;;;;1515776;77;777;-63
2023/06/07 04:27:59;;;;;;;;;;;24.90;42.80;;;;;;1515539;77;1111;-63
2023/06/07 04:29:55;;;;;;;;;;;25.00;42.80;;;;;;1508751;77;1946;-63
2023/06/07 04:31:56;;;;;;;;;;;25.00;42.60;;;;;;1494906;78;1499;-63
2023/06/07 04:34:01;;;;;;;;;;;25.00;42.70;;;;;;1485048;78;747;-63
2023/06/07 04:36:02;;;;;;;;;;;24.90;42.70;;;;;;1520727;77;1680;-63
2023/06/07 04:38:04;;;;;;;;;;;24.90;42.70;;;;;;1517140;77;1160;-63
2023/06/07 04:40:09;;;;;;;;;;;24.90;42.80;;;;;;1517339;77;706;-65
2023/06/07 04:42:11;;;;;;;;;;;25.00;42.80;;;;;;1516952;77;1569;-65
2023/06/07 04:44:13;;;;;;;;;;;25.00;42.40;;;;;;1516348;77;665;-65
2023/06/07 04:46:15;;;;;;;;;;;25.00;42.10;;;;;;1514646;77;1570;-64
2023/06/07 04:48:20;;;;;;;;;;;25.00;42.10;;;;;;1518651;77;1068;-64
2023/06/07 04:50:21;;;;;;;;;;;25.00;42.10;;;;;;1515537;77;1925;-65
2023/06/07 04:52:24;;;;;;;;;;;25.00;42.20;;;;;;1524571;77;779;-66
2023/06/07 04:54:28;;;;;;;;;;;25.00;42.20;;;;;;1518247;77;733;-65
2023/06/07 04:56:30;;;;;;;;;;;25.00;42.10;;;;;;1522041;77;1973;-66
2023/06/07 04:58:32;;;;;;;;;;;25.00;42.10;;;;;;1529022;76;1143;-64
2023/06/07 05:00:34;;;;;;;;;;;25.00;42.10;;;;;;1511519;77;1443;-67
2023/06/07 05:02:41;;;;;;;;;;;25.00;42.00;;;;;;1525366;77;860;-65
2023/06/07 05:04:40;;;;;;;;;;;25.00;42.00;;;;;;1511739;77;1664;-68
2023/06/07 05:06:42;;;;;;;;;;;25.00;42.00;;;;;;1512378;77;734;-68
2023/06/07 05:08:44;;;;;;;;;;;25.00;42.00;;;;;;1515332;77;1103;-65
2023/06/07 05:10:45;;;;;;;;;;;25.00;42.00;;;;;;1510036;77;1936;-67
2023/06/07 05:12:47;;;;;;;;;;;25.00;42.00;;;;;;1518156;77;795;-65
2023/06/07 05:14:49;;;;;;;;;;;25.00;41.90;;;;;;1519992;77;1600;-65
2023/06/07 05:16:51;;;;;;;;;;;25.00;41.90;;;;;;1520013;77;708;-66
2023/06/07 05:18:56;;;;;;;;;;;25.00;41.90;;;;;;1520506;77;1148;-65
2023/06/07 05:20:57;;;;;;;;;;;25.00;42.10;;;;;;1518220;77;1622;-65
2023/06/07 05:22:59;;;;;;;;;;;25.00;41.90;;;;;;1515384;77;776;-63
2023/06/07 05:25:01;;;;;;;;;;;25.00;41.90;;;;;;1517621;77;771;-64
2023/06/07 05:27:05;;;;;;;;;;;25.00;42.10;;;;;;1516536;77;1137;-64
2023/06/07 05:29:06;;;;;;;;;;;25.00;42.30;;;;;;1509708;77;1658;-64
2023/06/07 05:31:09;;;;;;;;;;;25.00;42.30;;;;;;1522834;77;1939;-64
2023/06/07 05:33:11;;;;;;;;;;;25.00;42.10;;;;;;1514393;77;804;-64
2023/06/07 05:35:13;;;;;;;;;;;25.00;41.90;;;;;;1517258;77;1087;-64
2023/06/07 05:37:15;;;;;;;;;;;25.00;41.80;;;;;;1519051;77;1319;-64
2023/06/07 05:39:17;;;;;;;;;;;24.90;41.80;;;;;;1522533;76;1143;-64
2023/06/07 05:41:19;;;;;;;;;;;25.00;41.70;;;;;;1517922;77;1335;-65
2023/06/07 05:43:21;;;;;;;;;;;24.90;41.70;;;;;;1510950;77;1246;-64
2023/06/07 05:45:23;;;;;;;;;;;25.00;41.70;;;;;;1516658;77;1220;-64
2023/06/07 05:47:27;;;;;;;;;;;24.90;41.70;;;;;;1513896;77;1442;-64
2023/06/07 05:49:29;;;;;;;;;;;24.90;41.70;;;;;;1519106;77;1507;-64
2023/06/07 05:51:31;;;;;;;;;;;25.00;41.70;;;;;;1501926;77;1923;-64
2023/06/07 05:53:33;;;;;;;;;;;24.90;41.70;;;;;;1502127;77;1266;-63
2023/06/07 05:55:35;;;;;;;;;;;24.90;41.70;;;;;;1517260;77;1530;-63
2023/06/07 05:57:37;;;;;;;;;;;24.90;41.70;;;;;;1511878;77;1577;-63
2023/06/07 05:59:39;;;;;;;;;;;24.90;41.80;;;;;;1521788;77;1702;-63
2023/06/07 06:01:42;;;;;;;;;;;24.90;41.80;;;;;;1526370;77;1325;-63
2023/06/07 06:03:44;;;;;;;;;;;24.90;41.80;;;;;;1509636;77;1506;-63
2023/06/07 06:05:46;;;;;;;;;;;24.90;41.70;;;;;;1507908;77;1362;-63
2023/06/07 06:07:48;;;;;;;;;;;25.00;41.80;;;;;;1516697;77;1359;-63
2023/06/07 06:09:50;;;;;;;;;;;24.90;41.80;;;;;;1515108;77;1379;-64
2023/06/07 06:11:52;;;;;;;;;;;24.80;41.80;;;;;;1514659;77;1949;-63
2023/06/07 06:13:54;;;;;;;;;;;24.90;41.90;;;;;;1509089;77;1349;-63
2023/06/07 06:15:56;;;;;;;;;;;24.80;41.80;;;;;;1513579;77;1290;-64
2023/06/07 06:17:58;;;;;;;;;;;24.80;41.80;;;;;;1513155;77;1317;-64
2023/06/07 06:20:00;;;;;;;;;;;24.80;41.80;;;;;;1514707;77;1459;-63
2023/06/07 06:22:01;;;;;;;;;;;24.90;41.80;;;;;;1508389;77;1217;-64
2023/06/07 06:24:04;;;;;;;;;;;24.90;41.80;;;;;;1511380;76;1412;-66
2023/06/07 06:26:06;;;;;;;;;;;24.80;42.00;;;;;;1515661;77;1263;-63
2023/06/07 06:28:08;;;;;;;;;;;24.90;42.10;;;;;;1516737;76;1151;-62
2023/06/07 06:30:10;;;;;;;;;;;24.90;42.10;;;;;;1511965;77;1492;-63
2023/06/07 06:32:12;;;;;;;;;;;24.90;42.00;;;;;;1514728;77;1939;-62
2023/06/07 06:34:14;;;;;;;;;;;25.00;42.00;;;;;;1514733;77;1440;-61
2023/06/07 06:36:16;;;;;;;;;;;25.00;42.00;;;;;;1509149;77;1347;-60
2023/06/07 06:38:17;;;;;;;;;;;25.10;41.80;;;;;;1510252;77;1517;-61
2023/06/07 06:40:20;;;;;;;;;;;25.00;41.80;;;;;;1520679;77;1454;-61
2023/06/07 06:42:22;;;;;;;;;;;24.90;42.00;;;;;;1513822;77;1000;-61
2023/06/07 06:44:24;;;;;;;;;;;25.00;42.10;;;;;;1524515;77;1348;-62
2023/06/07 06:46:26;;;;;;;;;;;25.10;42.10;;;;;;1519971;77;1293;-61
2023/06/07 06:48:27;;;;;;;;;;;25.10;42.10;;;;;;1511098;77;1345;-61
2023/06/07 06:50:29;;;;;;;;;;;25.10;42.10;;;;;;1524346;77;1365;-61
2023/06/07 06:52:31;;;;;;;;;;;25.10;42.10;;;;;;1515831;77;1960;-61
2023/06/07 06:54:34;;;;;;;;;;;25.30;41.90;;;;;;1510767;77;1242;-61
2023/06/07 06:56:36;;;;;;;;;;;25.30;42.00;;;;;;1507004;77;1185;-63
2023/06/07 06:58:38;;;;;;;;;;;25.30;41.90;;;;;;1513626;77;1242;-61
2023/06/07 07:00:40;;;;;;;;;;;25.40;41.80;;;;;;1514181;77;1045;-62
2023/06/07 07:02:42;;;;;;;;;;;25.30;42.10;;;;;;1509142;77;1635;-62
2023/06/07 07:04:43;;;;;;;;;;;25.30;42.10;;;;;;1499709;77;1370;-61
2023/06/07 07:06:46;;;;;;;;;;;25.40;42.00;;;;;;1505198;77;1541;-61
2023/06/07 07:08:47;;;;;;;;;;;25.30;42.10;;;;;;1507990;77;1221;-61
2023/06/07 07:10:49;;;;;;;;;;;25.20;42.00;;;;;;1511446;77;1951;-61
2023/06/07 07:12:51;;;;;;;;;;;25.20;42.20;;;;;;1514844;77;1428;-60
2023/06/07 07:14:53;;;;;;;;;;;25.20;42.10;;;;;;1511570;77;1475;-60
2023/06/07 07:16:55;;;;;;;;;;;25.30;42.20;;;;;;1517464;77;1317;-60
2023/06/07 07:18:57;;;;;;;;;;;25.30;42.10;;;;;;1514273;77;1320;-61
2023/06/07 07:20:59;;;;;;;;;;;25.30;42.20;;;;;;1513888;77;1464;-61
2023/06/07 07:23:02;;;;;;;;;;;25.40;42.10;;;;;;1520916;77;1324;-61
2023/06/07 07:25:06;;;;;;;;;;;25.50;42.00;;;;;;1514547;76;1178;-61
2023/06/07 07:27:07;;;;;;;;;;;25.50;41.80;;;;;;1512586;77;1291;-61
2023/06/07 07:29:10;;;;;;;;;;;25.60;41.60;;;;;;1504438;77;1180;-61
2023/06/07 07:31:13;;;;;;;;;;;25.50;41.70;;;;;;1516799;77;1929;-61
2023/06/07 07:33:15;;;;;;;;;;;25.60;41.50;;;;;;1518730;77;1516;-62
2023/06/07 07:35:18;;;;;;;;;;;25.50;41.60;;;;;;1519064;77;1569;-62
2023/06/07 07:37:20;;;;;;;;;;;25.60;41.50;;;;;;1518797;77;1549;-62
2023/06/07 07:39:22;;;;;;;;;;;25.70;41.30;;;;;;1509095;77;1437;-59
2023/06/07 07:41:24;;;;;;;;;;;25.60;41.00;;;;;;1522390;77;1318;-60
2023/06/07 07:43:26;;;;;;;;;;;25.50;41.20;;;;;;1485520;78;1565;-60
2023/06/07 07:45:28;;;;;;;;;;;25.50;41.30;;;;;;1509181;77;1494;-60
2023/06/07 07:47:30;;;;;;;;;;;25.50;41.30;;;;;;1521722;77;1335;-60
2023/06/07 07:49:32;;;;;;;;;;;25.50;40.90;;;;;;1508358;77;1696;-60
2023/06/07 07:51:34;;;;;;;;;;;25.50;40.90;;;;;;1511175;77;1952;-61
2023/06/07 07:53:36;;;;;;;;;;;25.50;40.50;;;;;;1509302;77;1325;-61
2023/06/07 07:55:38;;;;;;;;;;;25.40;40.70;;;;;;1510589;77;1398;-61
2023/06/07 07:57:40;;;;;;;;;;;25.50;40.70;;;;;;1515268;77;1559;-61
2023/06/07 07:59:41;;;;;;;;;;;25.50;40.60;;;;;;1506869;77;1309;-62
2023/06/07 08:01:45;;;;;;;;;;;25.50;40.70;;;;;;1521660;77;1255;-61
2023/06/07 08:03:47;;;;;;;;;;;25.60;40.40;;;;;;1507117;77;1528;-60
2023/06/07 08:05:49;;;;;;;;;;;25.60;40.40;;;;;;1525286;77;1275;-61
2023/06/07 08:07:52;;;;;;;;;;;25.60;39.70;;;;;;1511454;77;1171;-62
2023/06/07 08:09:55;;;;;;;;;;;25.50;39.30;;;;;;1520027;77;1075;-62
2023/06/07 08:11:57;;;;;;;;;;;25.40;40.40;;;;;;1511950;77;1936;-62
2023/06/07 08:13:58;;;;;;;;;;;25.40;40.50;;;;;;1508599;77;1340;-61
2023/06/07 08:16:00;;;;;;;;;;;25.40;39.90;;;;;;1511804;77;1364;-61
2023/06/07 08:18:02;;;;;;;;;;;25.40;39.30;;;;;;1516101;77;2133;-61
2023/06/07 08:20:07;;;;;;;;;;;25.20;39.10;;;;;;1513513;77;1394;-59
2023/06/07 08:22:08;;;;;;;;;;;25.10;40.20;;;;;;1516713;77;1611;-59
2023/06/07 08:24:11;;;;;;;;;;;25.20;40.20;;;;;;1513249;77;1281;-60
2023/06/07 08:26:13;;;;;;;;;;;25.10;39.80;;;;;;1513562;77;1325;-61
2023/06/07 08:28:15;;;;;;;;;;;25.10;40.10;;;;;;1509952;77;1514;-61
2023/06/07 08:30:17;;;;;;;;;;;25.20;40.20;;;;;;1504672;77;1498;-62
2023/06/07 08:32:21;;;;;;;;;;;25.20;40.00;;;;;;1509398;77;1949;-61
2023/06/07 08:34:28;;;;;;;;;;;25.30;40.00;;;;;;1515543;77;1467;-61
2023/06/07 08:36:26;;;;;;;;;;;25.20;40.00;;;;;;1517228;77;1486;-62
2023/06/07 08:38:28;;;;;;;;;;;25.30;39.90;;;;;;1505696;77;1318;-63
2023/06/07 08:40:30;;;;;;;;;;;25.20;39.80;;;;;;1514728;77;1452;-64
2023/06/07 08:42:32;;;;;;;;;;;25.30;39.90;;;;;;1516280;77;1321;-64
2023/06/07 08:44:34;;;;;;;;;;;25.30;39.90;;;;;;1522024;77;1525;-63
2023/06/07 08:46:36;;;;;;;;;;;25.40;40.00;;;;;;1518552;77;1428;-64
2023/06/07 08:48:39;;;;;;;;;;;25.50;39.90;;;;;;1510258;77;1547;-64
2023/06/07 08:50:41;;;;;;;;;;;25.50;40.00;;;;;;1522027;77;1223;-64
2023/06/07 08:52:43;;;;;;;;;;;25.50;39.90;;;;;;1515868;77;1943;-63
2023/06/07 08:54:46;;;;;;;;;;;25.50;39.70;;;;;;1513141;77;1248;-63
2023/06/07 08:56:48;;;;;;;;;;;25.50;39.80;;;;;;1518902;77;1371;-63
2023/06/07 08:58:50;;;;;;;;;;;25.50;39.60;;;;;;1515235;77;1393;-60
2023/06/07 09:00:53;;;;;;;;;;;25.20;39.80;;;;;;1514905;77;1309;-62
2023/06/07 09:02:54;;;;;;;;;;;25.20;40.20;;;;;;1516032;77;1321;-59
2023/06/07 09:04:56;;;;;;;;;;;25.30;40.30;;;;;;1518076;77;1314;-60
2023/06/07 09:07:00;;;;;;;;;;;25.40;40.20;;;;;;1520999;77;1342;-60
2023/06/07 09:09:03;;;;;;;;;;;25.30;40.10;;;;;;1514660;77;1215;-60
2023/06/07 09:11:05;;;;;;;;;;;25.30;40.20;;;;;;1515700;77;1238;-60
2023/06/07 09:13:07;;;;;;;;;;;25.40;40.00;;;;;;1508798;77;1951;-59
2023/06/07 09:15:10;;;;;;;;;;;25.30;39.60;;;;;;1512886;77;1409;-60
2023/06/07 09:17:11;;;;;;;;;;;25.40;39.90;;;;;;1508755;77;1495;-61
2023/06/07 09:19:13;;;;;;;;;;;25.40;39.70;;;;;;1515514;77;1255;-59
2023/06/07 09:21:21;;;;;;;;;;;25.40;39.70;;;;;;1511228;77;1094;-61
2023/06/07 09:23:23;;;;;;;;;;;25.50;39.80;;;;;;1515767;77;1335;-60
2023/06/07 09:25:27;;;;;;;;;;;25.40;39.60;;;;;;1521181;77;1270;-59
2023/06/07 09:27:31;;;;;;;;;;;25.40;39.70;;;;;;1506961;77;1261;-61
2023/06/07 09:29:40;;;;;;;;;;;25.40;39.40;;;;;;1511991;77;1334;-66
2023/06/07 09:31:42;;;;;;;;;;;25.50;39.50;;;;;;1510009;77;1929;-63
2023/06/07 09:33:44;;;;;;;;;;;25.40;39.20;;;;;;1527608;77;1231;-62
2023/06/07 09:35:48;;;;;;;;;;;25.50;38.00;;;;;;1514789;77;1081;-61
2023/06/07 09:37:59;;;;;;;;;;;25.40;39.20;;;;;;1515332;77;1148;-61
2023/06/07 09:39:58;;;;;;;;;;;25.40;39.10;;;;;;1517505;77;1592;-62
2023/06/07 09:42:00;;;;;;;;;;;25.30;39.10;;;;;;1508881;77;1662;-61
2023/06/07 09:44:02;;;;;;;;;;;25.40;38.90;;;;;;1503775;77;1329;-60
2023/06/07 09:46:04;;;;;;;;;;;25.30;37.80;;;;;;1511040;77;1346;-61
2023/06/07 09:48:09;;;;;;;;;;;25.20;38.20;;;;;;1516820;77;1343;-60
2023/06/07 09:50:12;;;;;;;;;;;25.20;39.20;;;;;;1516829;77;1215;-61
2023/06/07 09:52:14;;;;;;;;;;;25.20;37.80;;;;;;1513652;77;1982;-60
2023/06/07 09:54:17;;;;;;;;;;;25.10;38.90;;;;;;1514285;77;1309;-62
2023/06/07 09:56:21;;;;;;;;;;;25.20;39.10;;;;;;1523195;77;1598;-60
2023/06/07 09:58:24;;;;;;;;;;;25.20;37.90;;;;;;1518445;77;1127;-61
2023/06/07 10:00:27;;;;;;;;;;;25.30;38.90;;;;;;1514414;77;1508;-60
2023/06/07 10:02:29;;;;;;;;;;;25.10;37.80;;;;;;1516332;77;1558;-61
2023/06/07 10:04:31;;;;;;;;;;;25.20;38.60;;;;;;1516281;77;1494;-60
2023/06/07 10:06:34;;;;;;;;;;;25.20;38.80;;;;;;1528132;77;1503;-60
2023/06/07 10:08:36;;;;;;;;;;;25.20;38.70;;;;;;1517880;77;1500;-60
2023/06/07 10:10:38;;;;;;;;;;;25.20;38.60;;;;;;1506403;77;1292;-60
2023/06/07 10:12:41;;;;;;;;;;;25.40;38.50;;;;;;1518322;77;1923;-60
2023/06/07 10:14:45;;;;;;;;;;;25.20;38.10;;;;;;1516166;77;1081;-60
2023/06/07 10:16:54;;;;;;;;;;;25.20;37.90;;;;;;1516628;77;1390;-59
2023/06/07 10:18:57;;;;;;;;;;;25.10;38.20;;;;;;1508022;77;1604;-59
2023/06/07 10:21:00;;;;;;;;;;;25.10;38.50;;;;;;1514825;77;1418;-60
2023/06/07 10:23:06;;;;;;;;;;;25.10;38.50;;;;;;1512257;77;1450;-60
2023/06/07 10:25:09;;;;;;;;;;;25.30;38.70;;;;;;1515562;76;1689;-61
2023/06/07 10:27:13;;;;;;;;;;;25.30;38.60;;;;;;1511355;77;1350;-60
2023/06/07 10:29:16;;;;;;;;;;;25.20;38.60;;;;;;1516377;77;1527;-60
2023/06/07 10:31:18;;;;;;;;;;;25.20;38.60;;;;;;1518060;77;1740;-59
2023/06/07 10:33:20;;;;;;;;;;;25.20;38.90;;;;;;1520794;77;1927;-59
2023/06/07 10:35:22;;;;;;;;;;;25.20;38.90;;;;;;1514900;77;1320;-60
2023/06/07 10:37:24;;;;;;;;;;;25.30;39.10;;;;;;1508308;77;1472;-60
2023/06/07 10:39:26;;;;;;;;;;;25.20;39.00;;;;;;1522136;77;1509;-61
2023/06/07 10:41:28;;;;;;;;;;;25.20;38.60;;;;;;1519271;77;1411;-60
2023/06/07 10:43:31;;;;;;;;;;;25.20;39.00;;;;;;1515166;77;1506;-60
2023/06/07 10:45:32;;;;;;;;;;;25.20;38.90;;;;;;1516381;77;1462;-60
2023/06/07 10:47:34;;;;;;;;;;;25.20;38.10;;;;;;1517330;77;1540;-60
2023/06/07 10:49:36;;;;;;;;;;;25.10;38.20;;;;;;1514308;77;1469;-60
2023/06/07 10:51:51;;;;;;;;;;;25.10;38.70;;;;;;1520546;77;1536;-60
2023/06/07 10:53:50;;;;;;;;;;;25.10;38.80;;;;;;1513188;77;1961;-60
2023/06/07 10:55:52;;;;;;;;;;;25.10;38.40;;;;;;1521497;77;1067;-60
2023/06/07 10:57:54;;;;;;;;;;;25.10;38.90;;;;;;1519277;77;1346;-62
2023/06/07 10:59:56;;;;;;;;;;;25.10;38.90;;;;;;1524456;77;1573;-61
2023/06/07 11:02:15;;;;;;;;;;;25.10;38.60;;;;;;1480622;78;1602;-60
2023/06/07 11:04:34;;;;;;;;;;;25.10;38.70;;;;;;1514540;77;1577;-60
2023/06/07 11:06:38;;;;;;;;;;;25.20;38.00;;;;;;1520703;77;1441;-61
2023/06/07 11:08:40;;;;;;;;;;;25.20;38.70;;;;;;1510085;77;1450;-60
2023/06/07 11:10:42;;;;;;;;;;;25.20;38.80;;;;;;1515172;77;1742;-60
2023/06/07 11:12:48;;;;;;;;;;;25.20;38.90;;;;;;1521071;77;1929;-60
2023/06/07 11:14:58;;;;;;;;;;;25.30;38.90;;;;;;1510436;77;1368;-60
2023/06/07 11:17:00;;;;;;;;;;;25.20;38.50;;;;;;1507871;77;1656;-60
2023/06/07 11:19:05;;;;;;;;;;;25.20;38.40;;;;;;1513394;77;1552;-59
2023/06/07 11:21:06;;;;;;;;;;;25.30;38.40;;;;;;1512610;77;1601;-60
2023/06/07 11:23:28;;;;;;;;;;;25.30;38.30;;;;;;1514517;77;1369;-59
2023/06/07 11:25:30;;;;;;;;;;;25.30;38.30;;;;;;1511171;77;1498;-59
2023/06/07 11:27:31;;;;;;;;;;;25.20;38.20;;;;;;1490216;77;1453;-60
2023/06/07 11:29:33;;;;;;;;;;;25.30;38.40;;;;;;1520344;77;1377;-59
2023/06/07 11:31:35;;;;;;;;;;;25.20;38.30;;;;;;1489289;78;1634;-60
2023/06/07 11:33:37;;;;;;;;;;;25.20;38.30;;;;;;1506885;77;1941;-60
2023/06/07 11:35:39;;;;;;;;;;;25.20;38.10;;;;;;1518494;77;1410;-59
2023/06/07 11:37:41;;;;;;;;;;;25.20;38.10;;;;;;1518153;77;1421;-59
2023/06/07 11:39:43;;;;;;;;;;;25.20;36.60;;;;;;1517619;77;1377;-59
2023/06/07 11:41:45;;;;;;;;;;;25.10;37.00;;;;;;1521965;77;1372;-59
2023/06/07 11:43:47;;;;;;;;;;;25.10;37.70;;;;;;1509374;77;1442;-60
2023/06/07 11:45:49;;;;;;;;;;;25.00;36.80;;;;;;1509861;77;1350;-59
2023/06/07 11:47:51;;;;;;;;;;;24.90;37.50;;;;;;1513965;77;1508;-59
2023/06/07 11:49:54;;;;;;;;;;;24.90;37.20;;;;;;1511171;77;1279;-59
2023/06/07 11:51:59;;;;;;;;;;;24.80;36.30;;;;;;1510476;77;1032;-60
2023/06/07 11:54:00;;;;;;;;;;;24.90;37.80;;;;;;1517612;77;1941;-59
2023/06/07 11:56:02;;;;;;;;;;;24.90;38.00;;;;;;1510761;77;1414;-59
2023/06/07 11:58:05;;;;;;;;;;;24.90;37.50;;;;;;1514417;77;1298;-59
2023/06/07 12:00:18;;;;;;;;;;;25.00;38.00;;;;;;1507845;77;1367;-61
2023/06/07 12:02:21;;;;;;;;;;;25.00;38.20;;;;;;1515885;77;1443;-59
2023/06/07 12:04:24;;;;;;;;;;;25.00;37.50;;;;;;1512470;77;1206;-60
2023/06/07 12:06:26;;;;;;;;;;;24.90;37.80;;;;;;1518984;77;1095;-60